Impacts METAR Board
IDs:

KEWR - Newark Intl, NJ, US

Updated at: 0300 UTC 06 Dec 2019
Potential Impact None Slight Moderate High
Time 05/15Z 05/16Z 05/17Z 05/18Z 05/19Z 05/20Z 05/21Z 05/22Z 05/23Z 06/00Z 06/01Z 06/02Z 06/03Z
Temp41 43 43 44 42 41 40 40 39 38 38 38 38
Dewpt29 25 21 19 23 23 24 23 24 25 24 22 21
Altim29.78 29.80 29.81 29.80 29.81 29.85 29.88 29.92 29.95 29.99 30.02 30.04 30.07
VIS10 10 10 10 10 10 10 10 10 10 10 10 10
CIG160 140 140 -- 70 75 70 70 70 -- -- -- 50
CoverBKNBKNBKNSCTBKNBKNBKNBKNBKNSCTSCTSCTBKN
FltCatVFRVFRVFRVFRVFRVFRVFRVFRVFRVFRVFRVFRVFR
WX-RA------------------------
WDir300290270320290280280280290270270290290
WSpd17 20 23 19 17 13 12 19 14 11 10 14 14
WGst22 26 31 39 22 24 24 26 23 -- -- 20 --
Raw hourly METARs
KEWR 051451Z 30017G22KT 10SM -RA FEW025 SCT050 SCT100 BKN160 BKN250 05/M02 A2978 RMK AO2 RAB51 SLP083 P0000 60000 T00501017 53031
KEWR 051551Z 29020G26KT 10SM FEW040 SCT060 BKN140 06/M04 A2980 RMK AO2 PK WND 28033/1538 RAE12 SLP090 P0000 T00611039
KEWR 051651Z 27023G31KT 10SM FEW045 SCT060 BKN140 06/M06 A2981 RMK AO2 PK WND 27031/1651 SLP093 T00611061
KEWR 051751Z 32019G39KT 10SM SCT045 SCT060 07/M07 A2980 RMK AO2 PK WND 32039/1748 SLP089 60000 T00671072 10067 20028 50006
KEWR 051851Z 29017G22KT 10SM FEW025 SCT050 BKN070 06/M05 A2981 RMK AO2 PK WND 29030/1804 SLP095 T00561050
KEWR 051951Z 28013G24KT 10SM FEW045 SCT060 BKN075 05/M05 A2985 RMK AO2 PK WND 29028/1903 SLP107 VIRGA T00501050
KEWR 052051Z 28012G24KT 10SM FEW045 FEW060 BKN070 04/M04 A2988 RMK AO2 SLP119 T00441044 53030
KEWR 052151Z 28019G26KT 10SM FEW040 SCT055 BKN070 04/M05 A2992 RMK AO2 PK WND 29026/2145 SLP132 T00441050
KEWR 052251Z 29014G23KT 10SM FEW040 BKN070 04/M04 A2995 RMK AO2 PK WND 28029/2153 SLP142 T00391044
KEWR 052351Z 27011KT 10SM FEW045 SCT075 03/M04 A2999 RMK AO2 SLP153 T00331039 10067 20033 51035
KEWR 060051Z 27010KT 10SM FEW045 SCT065 03/M04 A3002 RMK AO2 SLP164 T00331044
KEWR 060151Z 29014G20KT 10SM FEW045 SCT060 03/M06 A3004 RMK AO2 SLP172 T00331056
KEWR 060251Z 29014KT 10SM BKN050 03/M06 A3007 RMK AO2 PK WND 28031/0232 SLP183 T00331061 51029



Page loaded:  03:50 UTC  |   07:50 PM Pacific  |   08:50 PM Mountain  |   09:50 PM Central  |   10:50 PM Eastern

 

ADVISORIES

FORECASTS

FORECASTS

OBSERVATIONS

USER TOOLS

ABOUT US